Time;durP1;ratioP1;P1;durP2;ratioP2;P2;SDS_P1;SDS_P2;PMS_P1;PMS_P2;Temp;Humidity;BMP_temperature;BMP_pressure;BME280_temperature;BME280_humidity;BME280_pressure;Samples;Min_cycle;Max_cycle;Signal;HPM_P1;HPM_P2
2021/01/19 00:00:33;;;;;;;10.60;1.90;;;5.80;99.90;;;;;;5052806;28;20335;-72
2021/01/19 00:03:00;;;;;;;6.03;2.63;;;5.80;99.90;;;;;;5037000;28;20255;-72
2021/01/19 00:05:26;;;;;;;5.57;2.50;;;5.80;99.90;;;;;;5041041;28;20229;-72
2021/01/19 00:07:52;;;;;;;11.43;2.40;;;5.80;99.90;;;;;;5029134;28;20280;-73
2021/01/19 00:10:18;;;;;;;8.93;2.33;;;5.80;99.90;;;;;;5023549;28;20205;-74
2021/01/19 00:12:45;;;;;;;7.63;2.03;;;5.80;99.90;;;;;;5039838;28;20241;-73
2021/01/19 00:15:12;;;;;;;6.00;2.07;;;5.80;99.90;;;;;;5052604;28;20281;-73
2021/01/19 00:17:38;;;;;;;5.57;2.53;;;5.80;99.90;;;;;;5043483;28;20210;-74
2021/01/19 00:20:06;;;;;;;7.30;2.43;;;5.80;99.90;;;;;;5035712;28;20207;-73
2021/01/19 00:22:32;;;;;;;5.90;3.43;;;5.80;99.90;;;;;;5047822;28;21829;-73
2021/01/19 00:36:06;;;;;;;5.07;3.63;;;5.80;99.90;;;;;;3315563;28;22328;-72
2021/01/19 00:38:32;;;;;;;6.33;1.87;;;5.80;99.90;;;;;;5023331;28;20261;-73
2021/01/19 00:40:58;;;;;;;5.27;2.27;;;5.80;99.90;;;;;;5065233;28;20242;-74
2021/01/19 00:43:26;;;;;;;3.47;1.70;;;5.90;99.90;;;;;;5034710;28;20358;-72
2021/01/19 00:45:52;;;;;;;8.17;2.67;;;5.90;99.90;;;;;;5016177;28;20256;-73
2021/01/19 00:48:19;;;;;;;6.77;2.30;;;5.90;99.90;;;;;;5007334;28;20336;-73
2021/01/19 00:50:45;;;;;;;3.10;2.07;;;5.90;99.90;;;;;;5044736;28;20237;-73
2021/01/19 00:53:11;;;;;;;8.93;2.23;;;5.80;99.90;;;;;;5038479;28;20284;-73
2021/01/19 00:55:38;;;;;;;5.17;1.80;;;5.80;99.90;;;;;;5039097;28;20277;-74
2021/01/19 00:58:04;;;;;;;10.03;1.87;;;5.90;99.90;;;;;;5024065;28;20300;-73
2021/01/19 01:00:30;;;;;;;5.93;2.00;;;5.90;99.90;;;;;;5011692;28;20286;-73
2021/01/19 01:02:57;;;;;;;7.97;1.27;;;5.90;99.90;;;;;;5034661;28;20259;-73
2021/01/19 01:05:23;;;;;;;7.17;2.80;;;5.90;99.90;;;;;;5019465;28;20278;-73
2021/01/19 01:07:50;;;;;;;6.93;1.83;;;5.80;99.90;;;;;;5011287;28;20300;-73
2021/01/19 01:10:16;;;;;;;7.70;2.10;;;5.90;99.90;;;;;;5020808;28;20664;-73
2021/01/19 01:12:44;;;;;;;4.00;1.40;;;5.80;99.90;;;;;;5047168;28;20210;-73
2021/01/19 01:15:14;;;;;;;4.77;2.13;;;5.80;99.90;;;;;;5044262;28;20255;-73
2021/01/19 01:17:41;;;;;;;10.37;1.87;;;5.70;99.90;;;;;;5038397;28;20284;-74
2021/01/19 01:20:11;;;;;;;10.13;1.50;;;5.70;99.90;;;;;;5040165;28;20230;-72
2021/01/19 01:22:47;;;;;;;8.23;2.13;;;5.70;99.90;;;;;;5038125;28;20277;-73
2021/01/19 01:25:15;;;;;;;8.90;1.80;;;5.70;99.90;;;;;;5023936;28;20220;-74
2021/01/19 01:27:43;;;;;;;3.10;1.90;;;5.70;99.90;;;;;;5042658;28;20225;-73
2021/01/19 01:30:11;;;;;;;9.70;2.53;;;5.70;99.90;;;;;;5030285;28;20629;-73
2021/01/19 01:32:42;;;;;;;10.87;1.80;;;5.70;99.90;;;;;;5039941;28;20488;-73
2021/01/19 01:35:10;;;;;;;9.00;2.63;;;5.70;99.90;;;;;;5041001;28;20200;-73
2021/01/19 01:41:27;;;;;;;8.57;2.50;;;5.60;99.90;;;;;;4291417;28;20606;-73
2021/01/19 01:43:53;;;;;;;4.90;2.17;;;5.60;99.90;;;;;;5056293;28;20954;-73
2021/01/19 01:46:20;;;;;;;4.20;1.90;;;5.60;99.90;;;;;;5021886;28;20338;-75
2021/01/19 01:48:48;;;;;;;4.77;1.70;;;5.60;99.90;;;;;;5013300;28;20234;-73
2021/01/19 01:51:15;;;;;;;3.27;1.37;;;5.60;99.90;;;;;;5036224;28;20192;-73
2021/01/19 01:53:42;;;;;;;6.73;2.10;;;5.50;99.90;;;;;;5041593;28;20200;-74
2021/01/19 01:56:10;;;;;;;6.73;1.90;;;5.50;99.90;;;;;;5016845;28;20204;-73
2021/01/19 01:58:37;;;;;;;5.80;2.17;;;5.50;99.90;;;;;;5032320;28;21498;-73
2021/01/19 02:01:04;;;;;;;3.33;1.53;;;5.50;99.90;;;;;;5049960;28;20199;-73
2021/01/19 02:03:32;;;;;;;7.33;2.23;;;5.50;99.90;;;;;;5044855;28;20244;-73
2021/01/19 02:05:58;;;;;;;2.87;1.40;;;5.50;99.90;;;;;;5029781;28;20278;-75
2021/01/19 02:08:41;;;;;;;6.10;1.80;;;5.50;99.90;;;;;;5041315;28;20214;-73
2021/01/19 02:11:29;;;;;;;6.10;1.93;;;5.50;99.90;;;;;;5031105;28;20213;-73
2021/01/19 02:14:23;;;;;;;9.00;1.73;;;5.50;99.90;;;;;;5043621;28;20614;-72
2021/01/19 02:17:03;;;;;;;5.07;1.70;;;5.40;99.90;;;;;;5062306;28;20287;-73
2021/01/19 02:19:40;;;;;;;7.40;1.80;;;5.40;99.90;;;;;;5031786;28;20714;-73
2021/01/19 02:22:40;;;;;;;6.80;1.77;;;5.40;99.90;;;;;;5032538;28;20668;-72
2021/01/19 02:25:32;;;;;;;9.77;2.67;;;5.40;99.90;;;;;;5041711;28;20260;-72
2021/01/19 02:28:20;;;;;;;3.23;2.27;;;5.40;99.90;;;;;;5043330;28;20287;-73
2021/01/19 02:31:05;;;;;;;9.17;2.70;;;5.30;99.90;;;;;;5042056;28;20201;-74
2021/01/19 02:33:47;;;;;;;4.47;2.33;;;5.30;99.90;;;;;;5030012;28;20253;-73
2021/01/19 02:36:25;;;;;;;4.20;1.97;;;5.30;99.90;;;;;;5040841;28;20238;-73
2021/01/19 02:39:02;;;;;;;4.67;2.00;;;5.30;99.90;;;;;;5042905;28;20193;-73
2021/01/19 02:41:29;;;;;;;8.17;2.20;;;5.20;99.90;;;;;;5049931;28;20266;-73
2021/01/19 02:44:15;;;;;;;5.67;2.30;;;5.20;99.90;;;;;;5043618;28;20238;-74
2021/01/19 02:46:41;;;;;;;3.13;1.70;;;5.20;99.90;;;;;;5051742;28;20192;-73
2021/01/19 02:49:08;;;;;;;5.43;2.17;;;5.20;99.90;;;;;;5039227;28;20338;-74
2021/01/19 02:51:34;;;;;;;12.20;2.23;;;5.20;99.90;;;;;;5013515;28;20247;-73
2021/01/19 02:54:01;;;;;;;5.83;2.50;;;5.20;99.90;;;;;;5033852;28;20255;-74
2021/01/19 02:56:49;;;;;;;10.10;2.93;;;5.20;99.90;;;;;;5040515;28;20703;-73
2021/01/19 02:59:58;;;;;;;7.03;2.30;;;5.10;99.90;;;;;;5036378;28;20565;-72
2021/01/19 03:02:31;;;;;;;5.40;1.67;;;5.10;99.90;;;;;;5031509;28;20205;-73
2021/01/19 03:05:00;;;;;;;7.33;2.43;;;5.00;99.90;;;;;;5043863;28;20247;-73
2021/01/19 03:07:30;;;;;;;5.80;2.40;;;5.00;99.90;;;;;;5031220;28;20226;-73
2021/01/19 03:10:00;;;;;;;7.00;2.70;;;5.00;99.90;;;;;;5036573;28;20555;-73
2021/01/19 03:12:28;;;;;;;4.63;2.67;;;4.90;99.90;;;;;;5033464;28;20212;-73
2021/01/19 03:14:54;;;;;;;3.87;2.67;;;4.90;99.90;;;;;;5021907;28;20227;-74
2021/01/19 03:17:20;;;;;;;7.57;2.27;;;4.80;99.90;;;;;;5042870;28;20222;-75
2021/01/19 03:19:48;;;;;;;6.97;3.47;;;4.80;99.90;;;;;;5017579;28;20652;-73
2021/01/19 03:22:15;;;;;;;7.57;2.83;;;4.80;99.90;;;;;;5020998;28;20219;-74
2021/01/19 03:24:41;;;;;;;4.73;2.80;;;4.70;99.90;;;;;;5035805;28;20220;-73
2021/01/19 03:27:09;;;;;;;14.00;3.37;;;4.70;99.90;;;;;;5041984;28;20209;-73
2021/01/19 03:29:36;;;;;;;5.20;2.80;;;4.70;99.90;;;;;;5040529;28;20211;-72
2021/01/19 03:32:03;;;;;;;6.57;2.60;;;4.70;99.90;;;;;;5042123;28;20303;-72
2021/01/19 03:34:29;;;;;;;8.77;3.63;;;4.60;99.90;;;;;;5038680;28;20236;-72
2021/01/19 03:36:55;;;;;;;8.73;3.03;;;4.60;99.90;;;;;;5025368;28;20236;-74
2021/01/19 03:39:22;;;;;;;5.77;2.83;;;4.60;99.90;;;;;;5046654;28;20203;-74
2021/01/19 03:41:48;;;;;;;11.63;4.30;;;4.60;99.90;;;;;;5023473;28;20207;-74
2021/01/19 03:44:15;;;;;;;11.00;3.40;;;4.60;99.90;;;;;;5041196;28;20243;-74
2021/01/19 03:46:41;;;;;;;10.80;3.83;;;4.60;99.90;;;;;;5017029;28;20274;-74
2021/01/19 03:49:08;;;;;;;4.87;3.00;;;4.60;99.90;;;;;;5047762;28;20700;-73
2021/01/19 03:51:35;;;;;;;9.83;3.33;;;4.60;99.90;;;;;;5021738;28;20208;-74
2021/01/19 03:54:02;;;;;;;4.53;3.07;;;4.50;99.90;;;;;;5026385;28;20251;-72
2021/01/19 03:56:28;;;;;;;5.00;3.57;;;4.50;99.90;;;;;;5067393;28;20258;-72
2021/01/19 03:58:54;;;;;;;9.00;3.50;;;4.50;99.90;;;;;;5023713;28;20201;-75
2021/01/19 04:01:21;;;;;;;9.50;3.27;;;4.50;99.90;;;;;;5033782;28;20192;-72
2021/01/19 04:03:47;;;;;;;4.20;2.87;;;4.50;99.90;;;;;;5029821;28;20263;-72
2021/01/19 04:06:13;;;;;;;4.33;2.53;;;4.50;99.90;;;;;;5044093;28;20287;-72
2021/01/19 04:08:39;;;;;;;5.97;2.23;;;4.50;99.90;;;;;;5048646;28;20200;-73
2021/01/19 04:11:06;;;;;;;6.47;3.97;;;4.50;99.90;;;;;;5034825;28;20220;-73
2021/01/19 04:13:33;;;;;;;7.37;3.20;;;4.60;99.90;;;;;;5041448;28;20279;-74
2021/01/19 04:16:00;;;;;;;8.80;4.00;;;4.50;99.90;;;;;;5033297;28;20670;-73
2021/01/19 04:18:26;;;;;;;7.50;3.60;;;4.60;99.90;;;;;;5036267;28;20236;-72
2021/01/19 04:20:52;;;;;;;7.57;3.13;;;4.60;99.90;;;;;;5017769;28;20636;-73
2021/01/19 04:23:19;;;;;;;8.77;3.37;;;4.70;99.90;;;;;;5010214;28;20282;-72
2021/01/19 04:25:46;;;;;;;5.33;2.77;;;4.60;99.90;;;;;;5052226;28;20751;-72
2021/01/19 04:28:14;;;;;;;6.07;2.93;;;4.70;99.90;;;;;;5044673;28;20220;-73
2021/01/19 04:30:42;;;;;;;5.23;3.13;;;4.70;99.90;;;;;;5044920;28;20661;-73
2021/01/19 04:33:09;;;;;;;5.17;3.33;;;4.70;99.90;;;;;;5039783;28;20239;-73
2021/01/19 04:35:35;;;;;;;5.90;3.00;;;4.70;99.90;;;;;;5035439;28;20547;-72
2021/01/19 04:38:02;;;;;;;4.93;2.97;;;4.80;99.90;;;;;;5038172;28;20969;-72
2021/01/19 04:40:28;;;;;;;3.27;2.40;;;4.80;99.90;;;;;;5037900;28;20259;-73
2021/01/19 04:42:55;;;;;;;6.63;3.57;;;4.80;99.90;;;;;;5026194;28;20224;-73
2021/01/19 04:45:21;;;;;;;4.87;3.83;;;4.80;99.90;;;;;;4993719;28;20212;-72
2021/01/19 04:47:48;;;;;;;2.93;2.53;;;4.80;99.90;;;;;;5031671;28;20276;-73
2021/01/19 04:50:15;;;;;;;4.13;2.43;;;4.80;99.90;;;;;;5014549;28;20200;-73
2021/01/19 04:52:44;;;;;;;7.53;3.03;;;4.90;99.90;;;;;;5018069;28;20586;-73
2021/01/19 04:55:21;;;;;;;2.90;2.63;;;4.90;99.90;;;;;;5024728;28;20287;-74
2021/01/19 04:58:00;;;;;;;4.10;2.53;;;4.90;99.90;;;;;;5018074;28;20205;-73
2021/01/19 05:00:31;;;;;;;1.97;1.77;;;4.90;99.90;;;;;;5011416;28;20566;-73
2021/01/19 05:03:21;;;;;;;4.13;2.33;;;4.90;99.90;;;;;;5040300;28;20247;-72
2021/01/19 05:05:47;;;;;;;3.03;2.03;;;5.00;99.90;;;;;;5021231;28;20634;-73
2021/01/19 05:08:17;;;;;;;4.00;2.50;;;5.00;99.90;;;;;;5017750;28;20309;-73
2021/01/19 05:10:54;;;;;;;3.03;2.60;;;5.00;99.90;;;;;;5017196;28;20671;-73
2021/01/19 05:13:55;;;;;;;3.93;2.53;;;5.00;99.90;;;;;;5020796;28;20269;-73
2021/01/19 05:16:36;;;;;;;4.40;2.70;;;5.00;99.90;;;;;;5035965;28;20275;-72
2021/01/19 05:19:04;;;;;;;3.57;2.30;;;5.10;99.90;;;;;;5033099;28;20817;-72
2021/01/19 05:21:44;;;;;;;2.37;2.17;;;5.10;99.90;;;;;;5041634;28;20311;-74
2021/01/19 05:24:10;;;;;;;2.80;2.43;;;5.10;99.90;;;;;;5017395;28;20244;-72
2021/01/19 05:26:41;;;;;;;4.30;2.93;;;5.10;99.90;;;;;;5002819;28;20212;-72
2021/01/19 05:29:08;;;;;;;4.07;2.20;;;5.10;99.90;;;;;;5028380;28;20229;-74
2021/01/19 05:31:34;;;;;;;3.90;2.57;;;5.20;99.90;;;;;;5015468;28;20201;-73
2021/01/19 05:34:10;;;;;;;2.83;2.30;;;5.20;99.90;;;;;;5035728;28;20209;-73
2021/01/19 05:36:38;;;;;;;5.80;2.53;;;5.30;99.90;;;;;;5021563;28;20542;-73
2021/01/19 05:39:08;;;;;;;2.83;2.30;;;5.30;99.90;;;;;;4997418;28;20200;-74
2021/01/19 05:41:46;;;;;;;3.17;2.50;;;5.30;99.90;;;;;;5013641;28;20258;-73
2021/01/19 05:44:16;;;;;;;2.83;2.47;;;5.30;99.90;;;;;;5042850;28;20249;-75
2021/01/19 05:46:45;;;;;;;2.63;2.10;;;5.30;99.90;;;;;;5042039;28;20609;-74
2021/01/19 05:49:23;;;;;;;3.40;2.10;;;5.30;99.90;;;;;;5039527;28;20251;-74
2021/01/19 05:51:55;;;;;;;3.53;2.53;;;5.30;99.90;;;;;;5052340;28;20471;-74
2021/01/19 05:54:32;;;;;;;3.97;2.27;;;5.40;99.90;;;;;;5045128;28;20211;-73
2021/01/19 05:57:10;;;;;;;2.47;2.20;;;5.50;99.90;;;;;;5024116;28;20256;-74
2021/01/19 05:59:44;;;;;;;3.40;2.23;;;5.40;99.90;;;;;;5036747;28;20204;-74
2021/01/19 06:02:13;;;;;;;2.13;1.87;;;5.40;99.90;;;;;;5040123;28;20271;-74
2021/01/19 06:05:06;;;;;;;3.93;1.80;;;5.40;99.90;;;;;;5031507;28;20221;-73
2021/01/19 06:07:34;;;;;;;1.60;1.50;;;5.40;99.90;;;;;;5041065;28;20228;-73
2021/01/19 06:10:09;;;;;;;3.30;2.63;;;5.50;99.90;;;;;;5045354;28;20196;-73
2021/01/19 06:12:36;;;;;;;2.53;1.80;;;5.50;99.90;;;;;;5031115;28;20207;-74
2021/01/19 06:15:03;;;;;;;2.37;2.00;;;5.50;99.90;;;;;;5018885;28;20286;-73
2021/01/19 06:17:29;;;;;;;2.33;2.10;;;5.50;99.90;;;;;;5036016;28;20265;-73
2021/01/19 06:20:00;;;;;;;2.77;1.93;;;5.50;99.90;;;;;;5024012;28;20255;-74
2021/01/19 06:22:28;;;;;;;3.33;2.00;;;5.50;99.90;;;;;;5015409;28;20201;-77
2021/01/19 06:24:56;;;;;;;1.70;1.57;;;5.50;99.90;;;;;;5021013;28;20282;-72
2021/01/19 06:27:22;;;;;;;2.40;2.00;;;5.50;99.90;;;;;;5039631;28;20196;-75
2021/01/19 06:29:49;;;;;;;3.80;2.70;;;5.50;99.90;;;;;;5037435;28;20243;-75
2021/01/19 06:32:17;;;;;;;3.13;1.73;;;5.60;99.90;;;;;;5033420;28;20266;-73
2021/01/19 06:34:44;;;;;;;3.30;2.20;;;5.60;99.90;;;;;;5030132;28;20629;-72
2021/01/19 06:37:26;;;;;;;2.10;1.60;;;5.60;99.90;;;;;;5035398;28;20606;-75
2021/01/19 06:40:01;;;;;;;3.80;1.87;;;5.60;99.90;;;;;;5031921;28;20201;-73
2021/01/19 06:42:30;;;;;;;4.30;1.90;;;5.70;99.90;;;;;;5041731;28;20239;-75
2021/01/19 06:44:59;;;;;;;4.53;2.57;;;5.70;99.90;;;;;;5027193;28;20265;-72
2021/01/19 06:47:26;;;;;;;2.53;1.47;;;5.70;99.90;;;;;;5021570;28;20200;-77
2021/01/19 06:50:02;;;;;;;2.83;1.73;;;5.80;99.90;;;;;;5041439;28;20201;-72
2021/01/19 06:52:37;;;;;;;2.93;2.07;;;5.80;99.90;;;;;;5026489;28;20801;-75
2021/01/19 06:55:11;;;;;;;2.77;2.17;;;5.80;99.90;;;;;;5031451;28;20715;-73
2021/01/19 06:57:52;;;;;;;2.07;1.80;;;5.80;99.90;;;;;;5025277;28;20256;-72
2021/01/19 07:00:21;;;;;;;1.90;1.70;;;5.90;99.90;;;;;;5043861;28;20201;-73
2021/01/19 07:02:51;;;;;;;3.60;1.90;;;5.90;99.90;;;;;;5047959;28;20258;-73
2021/01/19 07:05:22;;;;;;;5.40;1.87;;;5.90;99.90;;;;;;5027487;28;20219;-72
2021/01/19 07:08:12;;;;;;;3.20;1.97;;;5.90;99.90;;;;;;5028144;28;20197;-75
2021/01/19 07:10:48;;;;;;;2.13;1.87;;;6.00;99.90;;;;;;5039386;28;20247;-73
2021/01/19 07:13:24;;;;;;;2.67;1.77;;;6.00;99.90;;;;;;5045266;28;20629;-72
2021/01/19 07:15:53;;;;;;;3.93;2.17;;;6.00;99.90;;;;;;5038844;28;20200;-73
2021/01/19 07:18:31;;;;;;;3.53;1.77;;;6.00;99.90;;;;;;5041272;28;20261;-75
2021/01/19 07:21:02;;;;;;;3.23;1.70;;;6.10;99.90;;;;;;5030919;28;20276;-72
2021/01/19 07:23:47;;;;;;;2.70;1.80;;;6.10;99.90;;;;;;5036687;28;20603;-73
2021/01/19 07:26:30;;;;;;;2.00;1.87;;;6.10;99.90;;;;;;5039799;28;20272;-71
2021/01/19 07:28:57;;;;;;;3.20;1.90;;;6.10;99.90;;;;;;5035446;28;20265;-73
2021/01/19 07:31:25;;;;;;;8.50;2.17;;;6.10;99.90;;;;;;5030392;28;20304;-74
2021/01/19 07:33:55;;;;;;;2.03;1.67;;;6.10;99.90;;;;;;5036539;28;20203;-74
2021/01/19 07:36:24;;;;;;;2.07;1.43;;;6.20;99.90;;;;;;5026234;28;20196;-73
2021/01/19 07:38:53;;;;;;;3.13;2.07;;;6.20;99.90;;;;;;5040878;28;20209;-71
2021/01/19 07:41:29;;;;;;;2.63;1.80;;;6.20;99.90;;;;;;5044822;28;20623;-71
2021/01/19 07:43:56;;;;;;;3.30;1.50;;;6.20;99.90;;;;;;5042253;28;20240;-72
2021/01/19 07:46:36;;;;;;;3.60;1.50;;;6.20;99.90;;;;;;5030040;28;20272;-71
2021/01/19 07:49:05;;;;;;;3.93;1.50;;;6.20;99.90;;;;;;5040821;28;20274;-71
2021/01/19 07:51:48;;;;;;;2.37;1.60;;;6.20;99.90;;;;;;5032285;28;20645;-72
2021/01/19 07:54:35;;;;;;;1.53;1.30;;;6.30;99.90;;;;;;5043731;28;20201;-71
2021/01/19 07:57:17;;;;;;;1.80;1.40;;;6.30;99.90;;;;;;5022439;28;20263;-72
2021/01/19 07:59:44;;;;;;;1.63;1.50;;;6.30;99.90;;;;;;5013586;28;20263;-72
2021/01/19 08:02:24;;;;;;;2.60;1.50;;;6.30;99.90;;;;;;5049174;28;20206;-73
2021/01/19 08:05:06;;;;;;;3.07;1.53;;;6.30;99.90;;;;;;5047752;28;20223;-71
2021/01/19 08:07:38;;;;;;;1.23;1.13;;;6.30;99.90;;;;;;5023327;28;20287;-73
2021/01/19 08:10:18;;;;;;;1.47;1.30;;;6.30;99.90;;;;;;5047573;28;20629;-71
2021/01/19 08:12:47;;;;;;;5.13;1.30;;;6.30;99.90;;;;;;5036627;28;20638;-72
2021/01/19 08:15:18;;;;;;;1.73;1.00;;;6.30;99.90;;;;;;5039527;28;20208;-73
2021/01/19 08:17:50;;;;;;;1.60;1.33;;;6.40;99.90;;;;;;5038157;28;20268;-71
2021/01/19 08:20:29;;;;;;;2.20;1.40;;;6.40;99.90;;;;;;5047066;28;20266;-73
2021/01/19 08:23:10;;;;;;;3.20;1.50;;;6.40;99.90;;;;;;5038083;28;20545;-73
2021/01/19 08:25:38;;;;;;;2.73;1.50;;;6.40;99.90;;;;;;5029793;28;20290;-71
2021/01/19 08:28:05;;;;;;;1.77;1.30;;;6.40;99.90;;;;;;5016021;28;20204;-72
2021/01/19 08:30:32;;;;;;;2.70;1.10;;;6.50;99.90;;;;;;5055446;28;20200;-72
2021/01/19 08:33:00;;;;;;;2.17;1.23;;;6.50;99.90;;;;;;5033295;28;20196;-75
2021/01/19 08:35:29;;;;;;;3.20;1.10;;;6.50;99.90;;;;;;5039817;28;20200;-71
2021/01/19 08:37:57;;;;;;;1.87;1.30;;;6.50;99.90;;;;;;5032863;28;20208;-72
2021/01/19 08:40:26;;;;;;;1.83;1.40;;;6.50;99.90;;;;;;5029300;28;20208;-72
2021/01/19 08:42:54;;;;;;;1.53;1.23;;;6.50;99.90;;;;;;5026878;28;20239;-75
2021/01/19 08:45:41;;;;;;;3.43;1.37;;;6.50;99.90;;;;;;5040181;28;20641;-74
2021/01/19 08:48:09;;;;;;;3.63;1.30;;;6.50;99.90;;;;;;5031074;28;20203;-73
2021/01/19 08:50:39;;;;;;;2.07;1.30;;;6.60;99.90;;;;;;5042507;28;20551;-73
2021/01/19 08:53:11;;;;;;;2.10;1.20;;;6.60;99.90;;;;;;5041142;28;20302;-74
2021/01/19 08:55:38;;;;;;;3.23;1.40;;;6.60;99.90;;;;;;5055216;28;20236;-74
2021/01/19 08:58:06;;;;;;;1.33;1.10;;;6.60;99.90;;;;;;5046884;28;20204;-74
2021/01/19 09:00:36;;;;;;;1.50;1.27;;;6.60;99.90;;;;;;5018719;28;20218;-75
2021/01/19 09:03:10;;;;;;;1.17;1.07;;;6.60;99.90;;;;;;5043230;28;20614;-75
2021/01/19 09:05:38;;;;;;;1.80;1.27;;;6.70;99.90;;;;;;5043690;28;20560;-75
2021/01/19 09:08:18;;;;;;;2.83;1.47;;;6.70;99.90;;;;;;5038866;28;20256;-72
2021/01/19 09:10:45;;;;;;;1.43;1.33;;;6.70;99.90;;;;;;5024151;28;20635;-72
2021/01/19 09:13:12;;;;;;;1.77;1.67;;;6.70;99.90;;;;;;5039055;28;20279;-74
2021/01/19 09:15:43;;;;;;;1.40;1.30;;;6.80;99.90;;;;;;5057098;28;20516;-76
2021/01/19 09:18:11;;;;;;;1.57;1.47;;;6.80;99.90;;;;;;5047552;28;20211;-75
2021/01/19 09:20:42;;;;;;;2.77;1.33;;;6.90;99.90;;;;;;5039352;28;20204;-74
2021/01/19 09:23:15;;;;;;;3.07;1.20;;;6.90;99.90;;;;;;5040962;28;20651;-75
2021/01/19 09:25:46;;;;;;;3.60;1.70;;;7.00;99.90;;;;;;5030465;28;20293;-75
2021/01/19 09:28:14;;;;;;;1.30;1.20;;;7.00;99.90;;;;;;5021900;28;20197;-75
2021/01/19 09:30:41;;;;;;;1.70;1.60;;;7.10;99.90;;;;;;5033259;28;20205;-74
2021/01/19 09:33:12;;;;;;;3.40;1.60;;;7.10;99.90;;;;;;5024669;28;20702;-74
2021/01/19 09:35:41;;;;;;;1.87;1.60;;;7.20;99.90;;;;;;5039694;28;20204;-75
2021/01/19 09:38:17;;;;;;;5.93;1.63;;;7.20;99.90;;;;;;5025431;28;20676;-75
2021/01/19 09:40:45;;;;;;;3.07;1.70;;;7.30;99.90;;;;;;5018048;28;20207;-74
2021/01/19 09:43:16;;;;;;;2.03;1.93;;;7.30;99.90;;;;;;5033948;28;20238;-73
2021/01/19 09:45:44;;;;;;;2.77;1.60;;;7.40;99.90;;;;;;5049580;28;20219;-73
2021/01/19 09:48:13;;;;;;;2.77;1.87;;;7.40;99.90;;;;;;5028713;28;20212;-73
2021/01/19 09:50:39;;;;;;;1.30;1.20;;;7.50;99.90;;;;;;5044306;28;20243;-73
2021/01/19 09:53:23;;;;;;;2.43;1.87;;;7.60;99.90;;;;;;5048561;28;20206;-73
2021/01/19 09:55:50;;;;;;;2.10;1.90;;;7.70;99.90;;;;;;5034995;28;20207;-75
2021/01/19 09:58:22;;;;;;;3.80;1.50;;;7.70;99.90;;;;;;5039397;28;20258;-75
2021/01/19 10:00:48;;;;;;;2.63;2.43;;;7.70;99.90;;;;;;5035470;28;20217;-75
2021/01/19 10:03:17;;;;;;;3.20;2.47;;;7.80;99.90;;;;;;5009563;28;20246;-76
2021/01/19 10:06:00;;;;;;;2.20;2.00;;;7.90;99.90;;;;;;5023277;28;20224;-75
2021/01/19 10:08:27;;;;;;;2.50;2.30;;;7.90;99.90;;;;;;5038764;28;20201;-76
2021/01/19 10:10:54;;;;;;;2.33;2.13;;;8.00;99.90;;;;;;5004671;28;20274;-77
2021/01/19 10:13:34;;;;;;;2.47;2.27;;;8.10;99.90;;;;;;5026676;28;20330;-74
2021/01/19 10:16:08;;;;;;;2.40;2.20;;;8.10;99.90;;;;;;5041704;28;20556;-76
2021/01/19 10:18:36;;;;;;;4.40;3.30;;;8.10;99.90;;;;;;5045102;28;20288;-74
2021/01/19 10:21:02;;;;;;;2.70;2.30;;;8.20;99.90;;;;;;5023485;28;20204;-75
2021/01/19 10:23:32;;;;;;;2.43;2.23;;;8.20;99.90;;;;;;5011426;28;20207;-76
2021/01/19 10:26:31;;;;;;;2.30;2.07;;;8.30;99.90;;;;;;5044398;28;20216;-75
2021/01/19 10:28:58;;;;;;;2.37;2.17;;;8.40;99.90;;;;;;5036926;28;20253;-75
2021/01/19 10:31:27;;;;;;;2.13;2.03;;;8.50;99.90;;;;;;5025529;28;20233;-75
2021/01/19 10:34:05;;;;;;;2.93;2.10;;;8.50;99.90;;;;;;5040842;28;20187;-74
2021/01/19 10:36:37;;;;;;;1.70;1.60;;;8.50;99.90;;;;;;5024566;28;20633;-75
2021/01/19 10:39:07;;;;;;;2.23;1.77;;;8.60;99.90;;;;;;5023609;28;20203;-75
2021/01/19 10:41:33;;;;;;;2.00;1.80;;;8.60;99.90;;;;;;5038625;28;20201;-74
2021/01/19 10:44:04;;;;;;;1.83;1.60;;;8.70;99.90;;;;;;5005286;28;20232;-76
2021/01/19 10:46:31;;;;;;;2.17;1.97;;;8.70;99.90;;;;;;5038236;28;20290;-75
2021/01/19 10:49:12;;;;;;;3.23;2.20;;;8.70;99.90;;;;;;5018478;28;20211;-75
2021/01/19 10:51:40;;;;;;;2.50;2.30;;;8.80;99.90;;;;;;5018804;28;20201;-74
2021/01/19 10:54:06;;;;;;;1.97;1.77;;;8.80;99.90;;;;;;5019706;28;20217;-75
2021/01/19 10:56:33;;;;;;;2.60;1.90;;;8.90;99.90;;;;;;5021078;28;20205;-75
2021/01/19 10:59:00;;;;;;;2.40;2.20;;;8.90;99.90;;;;;;5037852;28;20192;-75
2021/01/19 11:01:27;;;;;;;2.27;2.17;;;8.90;99.90;;;;;;5025966;28;20260;-75
2021/01/19 11:03:54;;;;;;;3.63;2.10;;;8.90;99.90;;;;;;5027668;28;20223;-75
2021/01/19 11:06:20;;;;;;;2.30;2.10;;;8.80;99.90;;;;;;5020877;28;20240;-75
2021/01/19 11:08:50;;;;;;;2.50;2.30;;;8.80;99.90;;;;;;5008769;28;20197;-76
2021/01/19 11:11:16;;;;;;;3.33;3.00;;;8.80;99.90;;;;;;5016959;28;20201;-75
2021/01/19 11:13:43;;;;;;;3.47;3.10;;;8.80;99.90;;;;;;5023625;28;20205;-74
2021/01/19 11:16:09;;;;;;;3.80;3.40;;;8.80;99.90;;;;;;5017180;28;20295;-75
2021/01/19 11:18:36;;;;;;;4.47;3.60;;;8.80;99.90;;;;;;5022568;28;20243;-74
2021/01/19 11:21:05;;;;;;;3.97;3.13;;;8.80;99.90;;;;;;5010609;28;20558;-75
2021/01/19 11:23:32;;;;;;;4.97;4.47;;;8.80;99.90;;;;;;5029805;28;20209;-75
2021/01/19 11:25:59;;;;;;;6.63;5.03;;;8.80;99.90;;;;;;5004964;28;20220;-75
2021/01/19 11:28:25;;;;;;;5.37;4.47;;;8.80;99.90;;;;;;5038678;28;20197;-75
2021/01/19 11:30:51;;;;;;;5.53;4.70;;;8.80;99.90;;;;;;5027117;28;20205;-75
2021/01/19 11:33:18;;;;;;;5.63;4.80;;;8.80;99.90;;;;;;5011390;28;20270;-75
2021/01/19 11:35:45;;;;;;;4.17;3.77;;;8.80;99.90;;;;;;5020807;28;20264;-75
2021/01/19 11:38:11;;;;;;;5.67;4.93;;;8.80;99.90;;;;;;5038744;28;20209;-74
2021/01/19 11:40:39;;;;;;;6.27;5.40;;;8.80;99.90;;;;;;5023168;28;20197;-76
2021/01/19 11:43:17;;;;;;;5.60;4.87;;;8.70;99.90;;;;;;5035237;28;20231;-75
2021/01/19 11:45:44;;;;;;;8.00;5.23;;;8.80;99.90;;;;;;5043362;28;20607;-76
2021/01/19 11:48:10;;;;;;;9.53;5.27;;;8.80;99.90;;;;;;5042224;28;20240;-75
2021/01/19 11:50:37;;;;;;;6.37;5.23;;;8.80;99.90;;;;;;5010780;28;20207;-75
2021/01/19 11:53:03;;;;;;;6.93;5.00;;;8.80;99.90;;;;;;5043040;28;20201;-75
2021/01/19 11:55:29;;;;;;;5.60;4.60;;;8.80;99.90;;;;;;5032270;28;20196;-75
2021/01/19 11:57:56;;;;;;;6.17;4.73;;;8.90;99.90;;;;;;5039014;28;20201;-75
2021/01/19 12:00:22;;;;;;;6.70;4.97;;;8.80;99.90;;;;;;5023122;28;20205;-76
2021/01/19 12:02:48;;;;;;;5.40;4.70;;;8.90;99.90;;;;;;5042974;28;20267;-75
2021/01/19 12:05:15;;;;;;;4.87;4.17;;;8.80;99.90;;;;;;5024414;28;20703;-75
2021/01/19 12:07:42;;;;;;;5.17;4.23;;;8.80;99.90;;;;;;5037076;28;20204;-74
2021/01/19 12:10:09;;;;;;;6.17;4.87;;;8.90;99.90;;;;;;5038268;28;20278;-75
2021/01/19 12:12:35;;;;;;;5.90;4.77;;;8.90;99.90;;;;;;5025898;28;20594;-76
2021/01/19 12:15:03;;;;;;;6.53;5.60;;;8.90;99.90;;;;;;5026822;28;20212;-75
2021/01/19 12:17:29;;;;;;;7.27;5.27;;;8.90;99.90;;;;;;5041776;28;20206;-74
2021/01/19 12:19:56;;;;;;;6.20;4.63;;;8.90;99.90;;;;;;5006792;28;20203;-75
2021/01/19 12:22:23;;;;;;;6.80;5.30;;;8.90;99.90;;;;;;5036819;28;20300;-74
2021/01/19 12:24:50;;;;;;;6.47;4.87;;;9.00;99.90;;;;;;5039668;28;20212;-75
2021/01/19 12:27:16;;;;;;;5.50;4.47;;;9.00;99.90;;;;;;5052706;28;20227;-75
2021/01/19 12:29:42;;;;;;;7.27;4.23;;;9.00;99.90;;;;;;5039311;28;20688;-74
2021/01/19 12:32:10;;;;;;;5.53;4.63;;;9.10;99.90;;;;;;5027792;28;20196;-75
2021/01/19 12:34:38;;;;;;;4.83;3.87;;;9.10;99.90;;;;;;5039270;28;20274;-75
2021/01/19 12:37:05;;;;;;;5.73;4.27;;;9.20;99.90;;;;;;5040369;28;20229;-75
2021/01/19 12:39:31;;;;;;;6.03;4.40;;;9.20;99.90;;;;;;5059043;28;20296;-74
2021/01/19 12:41:58;;;;;;;5.97;4.43;;;9.30;99.90;;;;;;5014442;28;20214;-75
2021/01/19 12:44:24;;;;;;;6.30;4.20;;;9.40;99.90;;;;;;5044848;28;20338;-75
2021/01/19 12:46:51;;;;;;;6.97;4.40;;;9.40;99.90;;;;;;5025903;28;21542;-75
2021/01/19 12:49:18;;;;;;;5.47;4.50;;;9.50;99.90;;;;;;5020681;28;20661;-75
2021/01/19 12:51:45;;;;;;;6.40;4.77;;;9.50;99.90;;;;;;5040160;28;20198;-75
2021/01/19 12:54:11;;;;;;;4.30;3.63;;;9.50;99.90;;;;;;5035851;28;20204;-75
2021/01/19 12:56:38;;;;;;;6.23;4.10;;;9.60;99.90;;;;;;5027492;28;20578;-74
2021/01/19 12:59:04;;;;;;;4.60;3.90;;;9.60;99.90;;;;;;5012920;28;20218;-75
2021/01/19 13:01:31;;;;;;;4.00;3.53;;;9.60;99.90;;;;;;5020796;28;20238;-75
2021/01/19 13:03:58;;;;;;;8.30;3.83;;;9.60;99.90;;;;;;5023656;28;20289;-75
2021/01/19 13:06:25;;;;;;;4.77;3.33;;;9.70;99.90;;;;;;5033395;28;20278;-73
2021/01/19 13:08:52;;;;;;;4.57;3.50;;;9.70;99.90;;;;;;5043020;28;20197;-75
2021/01/19 13:11:18;;;;;;;5.03;3.43;;;9.70;99.90;;;;;;5025604;28;20254;-75
2021/01/19 13:13:45;;;;;;;5.23;3.60;;;9.70;99.90;;;;;;5036762;28;20249;-74
2021/01/19 13:16:11;;;;;;;4.13;3.20;;;9.70;99.90;;;;;;5031667;28;20205;-75
2021/01/19 13:18:40;;;;;;;4.07;3.37;;;9.80;99.90;;;;;;5042316;28;20632;-74
2021/01/19 13:21:07;;;;;;;3.77;3.23;;;9.80;99.90;;;;;;5032678;28;20251;-75
2021/01/19 13:23:34;;;;;;;3.00;2.47;;;9.80;99.90;;;;;;5028384;28;20287;-75
2021/01/19 13:26:00;;;;;;;3.83;2.97;;;9.80;99.90;;;;;;5029859;28;20698;-73
2021/01/19 13:28:27;;;;;;;3.23;2.67;;;9.90;99.90;;;;;;5026880;28;20287;-75